sensor_id;sensor_type;location;lat;lon;timestamp;P1;durP1;ratioP1;P2;durP2;ratioP2
12707;SDS011;6418;50.824;4.718;2023-04-25T00:02:15;21.77;;;8.00;;
12707;SDS011;6418;50.824;4.718;2023-04-25T00:04:44;21.03;;;7.97;;
12707;SDS011;6418;50.824;4.718;2023-04-25T00:07:11;23.37;;;8.30;;
12707;SDS011;6418;50.824;4.718;2023-04-25T00:09:38;22.00;;;8.63;;
12707;SDS011;6418;50.824;4.718;2023-04-25T00:12:05;24.37;;;8.37;;
12707;SDS011;6418;50.824;4.718;2023-04-25T00:14:33;24.07;;;8.40;;
12707;SDS011;6418;50.824;4.718;2023-04-25T00:17:00;22.30;;;7.90;;
12707;SDS011;6418;50.824;4.718;2023-04-25T00:19:27;19.57;;;7.77;;
12707;SDS011;6418;50.824;4.718;2023-04-25T00:21:56;22.03;;;8.27;;
12707;SDS011;6418;50.824;4.718;2023-04-25T00:24:23;19.93;;;8.00;;
12707;SDS011;6418;50.824;4.718;2023-04-25T00:26:50;22.20;;;7.90;;
12707;SDS011;6418;50.824;4.718;2023-04-25T00:29:17;19.77;;;7.97;;
12707;SDS011;6418;50.824;4.718;2023-04-25T00:31:44;19.20;;;7.87;;
12707;SDS011;6418;50.824;4.718;2023-04-25T00:34:11;27.37;;;8.60;;
12707;SDS011;6418;50.824;4.718;2023-04-25T00:36:38;22.57;;;8.37;;
12707;SDS011;6418;50.824;4.718;2023-04-25T00:39:07;19.80;;;8.00;;
12707;SDS011;6418;50.824;4.718;2023-04-25T00:41:34;23.17;;;8.67;;
12707;SDS011;6418;50.824;4.718;2023-04-25T00:44:01;17.30;;;7.63;;
12707;SDS011;6418;50.824;4.718;2023-04-25T00:46:29;19.67;;;8.13;;
12707;SDS011;6418;50.824;4.718;2023-04-25T00:48:57;18.90;;;7.77;;
12707;SDS011;6418;50.824;4.718;2023-04-25T00:51:24;22.47;;;8.10;;
12707;SDS011;6418;50.824;4.718;2023-04-25T00:53:52;26.47;;;8.23;;
12707;SDS011;6418;50.824;4.718;2023-04-25T00:56:21;18.13;;;8.27;;
12707;SDS011;6418;50.824;4.718;2023-04-25T00:58:48;26.63;;;8.97;;
12707;SDS011;6418;50.824;4.718;2023-04-25T01:01:18;25.80;;;8.67;;
12707;SDS011;6418;50.824;4.718;2023-04-25T01:03:46;25.70;;;8.60;;
12707;SDS011;6418;50.824;4.718;2023-04-25T01:06:15;20.50;;;8.83;;
12707;SDS011;6418;50.824;4.718;2023-04-25T01:08:42;20.73;;;8.83;;
12707;SDS011;6418;50.824;4.718;2023-04-25T01:11:09;20.50;;;8.40;;
12707;SDS011;6418;50.824;4.718;2023-04-25T01:13:38;20.90;;;8.53;;
12707;SDS011;6418;50.824;4.718;2023-04-25T01:16:05;23.07;;;8.47;;
12707;SDS011;6418;50.824;4.718;2023-04-25T01:18:32;19.73;;;8.73;;
12707;SDS011;6418;50.824;4.718;2023-04-25T01:21:07;24.10;;;9.10;;
12707;SDS011;6418;50.824;4.718;2023-04-25T01:23:35;25.47;;;8.90;;
12707;SDS011;6418;50.824;4.718;2023-04-25T01:26:02;20.73;;;8.50;;
12707;SDS011;6418;50.824;4.718;2023-04-25T01:28:29;19.67;;;8.13;;
12707;SDS011;6418;50.824;4.718;2023-04-25T01:30:58;20.20;;;8.37;;
12707;SDS011;6418;50.824;4.718;2023-04-25T01:33:25;19.90;;;8.60;;
12707;SDS011;6418;50.824;4.718;2023-04-25T01:35:52;27.53;;;9.43;;
12707;SDS011;6418;50.824;4.718;2023-04-25T01:38:21;22.93;;;8.97;;
12707;SDS011;6418;50.824;4.718;2023-04-25T01:40:48;24.97;;;9.87;;
12707;SDS011;6418;50.824;4.718;2023-04-25T01:43:17;23.47;;;9.20;;
12707;SDS011;6418;50.824;4.718;2023-04-25T01:45:44;23.10;;;9.23;;
12707;SDS011;6418;50.824;4.718;2023-04-25T01:48:12;20.50;;;8.73;;
12707;SDS011;6418;50.824;4.718;2023-04-25T01:50:41;23.47;;;9.77;;
12707;SDS011;6418;50.824;4.718;2023-04-25T01:53:08;23.73;;;9.93;;
12707;SDS011;6418;50.824;4.718;2023-04-25T01:55:38;27.47;;;9.03;;
12707;SDS011;6418;50.824;4.718;2023-04-25T01:58:05;27.73;;;9.80;;
12707;SDS011;6418;50.824;4.718;2023-04-25T02:00:34;25.90;;;9.57;;
12707;SDS011;6418;50.824;4.718;2023-04-25T02:03:03;23.57;;;9.43;;
12707;SDS011;6418;50.824;4.718;2023-04-25T02:05:33;27.53;;;9.77;;
12707;SDS011;6418;50.824;4.718;2023-04-25T02:08:02;28.80;;;9.37;;
12707;SDS011;6418;50.824;4.718;2023-04-25T02:10:29;28.47;;;9.67;;
12707;SDS011;6418;50.824;4.718;2023-04-25T02:12:58;23.63;;;8.50;;
12707;SDS011;6418;50.824;4.718;2023-04-25T02:15:25;23.67;;;9.40;;
12707;SDS011;6418;50.824;4.718;2023-04-25T02:17:52;21.97;;;9.13;;
12707;SDS011;6418;50.824;4.718;2023-04-25T02:20:19;26.03;;;8.97;;
12707;SDS011;6418;50.824;4.718;2023-04-25T02:22:48;29.37;;;9.27;;
12707;SDS011;6418;50.824;4.718;2023-04-25T02:25:15;27.47;;;9.67;;
12707;SDS011;6418;50.824;4.718;2023-04-25T02:27:43;19.77;;;8.33;;
12707;SDS011;6418;50.824;4.718;2023-04-25T02:30:12;24.40;;;8.90;;
12707;SDS011;6418;50.824;4.718;2023-04-25T02:32:39;26.90;;;8.50;;
12707;SDS011;6418;50.824;4.718;2023-04-25T02:35:07;26.00;;;8.40;;
12707;SDS011;6418;50.824;4.718;2023-04-25T02:37:35;25.73;;;8.20;;
12707;SDS011;6418;50.824;4.718;2023-04-25T02:40:02;19.50;;;7.97;;
12707;SDS011;6418;50.824;4.718;2023-04-25T02:42:30;23.20;;;8.00;;
12707;SDS011;6418;50.824;4.718;2023-04-25T02:44:57;24.27;;;8.30;;
12707;SDS011;6418;50.824;4.718;2023-04-25T02:47:25;31.33;;;8.30;;
12707;SDS011;6418;50.824;4.718;2023-04-25T02:49:52;22.87;;;7.93;;
12707;SDS011;6418;50.824;4.718;2023-04-25T02:52:19;25.00;;;8.30;;
12707;SDS011;6418;50.824;4.718;2023-04-25T02:54:47;23.13;;;8.47;;
12707;SDS011;6418;50.824;4.718;2023-04-25T02:57:14;20.43;;;8.10;;
12707;SDS011;6418;50.824;4.718;2023-04-25T02:59:41;23.17;;;8.23;;
12707;SDS011;6418;50.824;4.718;2023-04-25T03:02:08;23.23;;;8.03;;
12707;SDS011;6418;50.824;4.718;2023-04-25T03:04:37;23.97;;;8.20;;
12707;SDS011;6418;50.824;4.718;2023-04-25T03:07:04;22.90;;;8.17;;
12707;SDS011;6418;50.824;4.718;2023-04-25T03:09:31;26.27;;;8.63;;
12707;SDS011;6418;50.824;4.718;2023-04-25T03:11:58;24.70;;;8.33;;
12707;SDS011;6418;50.824;4.718;2023-04-25T03:14:26;23.73;;;8.27;;
12707;SDS011;6418;50.824;4.718;2023-04-25T03:16:53;25.30;;;8.00;;
12707;SDS011;6418;50.824;4.718;2023-04-25T03:19:20;25.30;;;8.83;;
12707;SDS011;6418;50.824;4.718;2023-04-25T03:21:48;21.03;;;7.87;;
12707;SDS011;6418;50.824;4.718;2023-04-25T03:24:16;24.73;;;8.00;;
12707;SDS011;6418;50.824;4.718;2023-04-25T03:26:42;26.63;;;8.20;;
12707;SDS011;6418;50.824;4.718;2023-04-25T03:29:10;18.53;;;7.40;;
12707;SDS011;6418;50.824;4.718;2023-04-25T03:31:37;23.87;;;8.27;;
12707;SDS011;6418;50.824;4.718;2023-04-25T03:34:04;28.80;;;8.13;;
12707;SDS011;6418;50.824;4.718;2023-04-25T03:36:31;20.93;;;7.40;;
12707;SDS011;6418;50.824;4.718;2023-04-25T03:39:00;22.03;;;8.63;;
12707;SDS011;6418;50.824;4.718;2023-04-25T03:41:28;29.53;;;8.87;;
12707;SDS011;6418;50.824;4.718;2023-04-25T03:43:55;23.27;;;8.13;;
12707;SDS011;6418;50.824;4.718;2023-04-25T03:46:22;23.23;;;8.13;;
12707;SDS011;6418;50.824;4.718;2023-04-25T03:48:49;23.03;;;7.70;;
12707;SDS011;6418;50.824;4.718;2023-04-25T03:51:16;27.37;;;7.87;;
12707;SDS011;6418;50.824;4.718;2023-04-25T03:53:42;23.87;;;8.13;;
12707;SDS011;6418;50.824;4.718;2023-04-25T03:56:11;22.60;;;7.50;;
12707;SDS011;6418;50.824;4.718;2023-04-25T03:58:38;26.67;;;8.90;;
12707;SDS011;6418;50.824;4.718;2023-04-25T04:01:05;26.17;;;8.33;;
12707;SDS011;6418;50.824;4.718;2023-04-25T04:03:32;24.10;;;7.97;;
12707;SDS011;6418;50.824;4.718;2023-04-25T04:06:00;19.13;;;6.57;;
12707;SDS011;6418;50.824;4.718;2023-04-25T04:08:28;24.83;;;7.43;;
12707;SDS011;6418;50.824;4.718;2023-04-25T04:10:55;29.33;;;7.70;;
12707;SDS011;6418;50.824;4.718;2023-04-25T04:13:23;22.00;;;7.23;;
12707;SDS011;6418;50.824;4.718;2023-04-25T04:15:52;20.03;;;7.73;;
12707;SDS011;6418;50.824;4.718;2023-04-25T04:18:19;22.30;;;7.50;;
12707;SDS011;6418;50.824;4.718;2023-04-25T04:20:46;21.20;;;7.73;;
12707;SDS011;6418;50.824;4.718;2023-04-25T04:23:13;19.43;;;7.80;;
12707;SDS011;6418;50.824;4.718;2023-04-25T04:25:40;26.30;;;8.33;;
12707;SDS011;6418;50.824;4.718;2023-04-25T04:28:07;17.90;;;7.07;;
12707;SDS011;6418;50.824;4.718;2023-04-25T04:30:37;22.23;;;8.17;;
12707;SDS011;6418;50.824;4.718;2023-04-25T04:33:04;21.30;;;7.20;;
12707;SDS011;6418;50.824;4.718;2023-04-25T04:35:32;22.47;;;7.07;;
12707;SDS011;6418;50.824;4.718;2023-04-25T04:37:59;24.33;;;7.70;;
12707;SDS011;6418;50.824;4.718;2023-04-25T04:40:26;23.70;;;8.03;;
12707;SDS011;6418;50.824;4.718;2023-04-25T04:42:55;21.37;;;7.67;;
12707;SDS011;6418;50.824;4.718;2023-04-25T04:45:22;20.03;;;7.33;;
12707;SDS011;6418;50.824;4.718;2023-04-25T04:47:51;22.80;;;7.47;;
12707;SDS011;6418;50.824;4.718;2023-04-25T04:50:20;21.50;;;7.50;;
12707;SDS011;6418;50.824;4.718;2023-04-25T04:52:47;20.97;;;7.00;;
12707;SDS011;6418;50.824;4.718;2023-04-25T04:55:14;20.37;;;7.33;;
12707;SDS011;6418;50.824;4.718;2023-04-25T04:57:41;21.70;;;6.90;;
12707;SDS011;6418;50.824;4.718;2023-04-25T05:00:09;22.57;;;7.07;;
12707;SDS011;6418;50.824;4.718;2023-04-25T05:02:37;23.83;;;6.90;;
12707;SDS011;6418;50.824;4.718;2023-04-25T05:05:06;20.07;;;7.13;;
12707;SDS011;6418;50.824;4.718;2023-04-25T05:07:34;22.03;;;7.43;;
12707;SDS011;6418;50.824;4.718;2023-04-25T05:10:00;26.43;;;7.30;;
12707;SDS011;6418;50.824;4.718;2023-04-25T05:12:28;18.57;;;7.13;;
12707;SDS011;6418;50.824;4.718;2023-04-25T05:14:58;20.10;;;7.23;;
12707;SDS011;6418;50.824;4.718;2023-04-25T05:17:25;24.50;;;7.30;;
12707;SDS011;6418;50.824;4.718;2023-04-25T05:19:52;19.10;;;7.47;;
12707;SDS011;6418;50.824;4.718;2023-04-25T05:22:20;20.60;;;7.80;;
12707;SDS011;6418;50.824;4.718;2023-04-25T05:24:47;22.13;;;8.00;;
12707;SDS011;6418;50.824;4.718;2023-04-25T05:27:16;18.80;;;7.87;;
12707;SDS011;6418;50.824;4.718;2023-04-25T05:29:44;19.83;;;7.30;;
12707;SDS011;6418;50.824;4.718;2023-04-25T05:32:11;22.67;;;8.13;;
12707;SDS011;6418;50.824;4.718;2023-04-25T05:34:38;17.77;;;7.73;;
12707;SDS011;6418;50.824;4.718;2023-04-25T05:37:05;24.27;;;8.13;;
12707;SDS011;6418;50.824;4.718;2023-04-25T05:39:33;21.03;;;7.93;;
12707;SDS011;6418;50.824;4.718;2023-04-25T05:42:00;23.77;;;8.33;;
12707;SDS011;6418;50.824;4.718;2023-04-25T05:44:28;25.83;;;7.83;;
12707;SDS011;6418;50.824;4.718;2023-04-25T05:46:56;19.30;;;8.10;;
12707;SDS011;6418;50.824;4.718;2023-04-25T05:49:23;24.37;;;8.60;;
12707;SDS011;6418;50.824;4.718;2023-04-25T05:51:50;20.47;;;7.90;;
12707;SDS011;6418;50.824;4.718;2023-04-25T05:54:17;21.00;;;8.23;;
12707;SDS011;6418;50.824;4.718;2023-04-25T05:56:45;22.60;;;8.37;;
12707;SDS011;6418;50.824;4.718;2023-04-25T05:59:12;20.70;;;8.33;;
12707;SDS011;6418;50.824;4.718;2023-04-25T06:01:39;24.67;;;8.50;;
12707;SDS011;6418;50.824;4.718;2023-04-25T06:04:07;23.40;;;8.10;;
12707;SDS011;6418;50.824;4.718;2023-04-25T06:06:34;23.80;;;8.07;;
12707;SDS011;6418;50.824;4.718;2023-04-25T06:09:01;20.93;;;9.07;;
12707;SDS011;6418;50.824;4.718;2023-04-25T06:11:28;24.87;;;8.50;;
12707;SDS011;6418;50.824;4.718;2023-04-25T06:13:56;20.80;;;8.53;;
12707;SDS011;6418;50.824;4.718;2023-04-25T06:16:23;27.20;;;8.13;;
12707;SDS011;6418;50.824;4.718;2023-04-25T06:18:51;23.23;;;8.27;;
12707;SDS011;6418;50.824;4.718;2023-04-25T06:21:18;23.90;;;8.93;;
12707;SDS011;6418;50.824;4.718;2023-04-25T06:23:45;20.90;;;8.27;;
12707;SDS011;6418;50.824;4.718;2023-04-25T06:26:12;23.70;;;8.57;;
12707;SDS011;6418;50.824;4.718;2023-04-25T06:28:39;20.87;;;7.93;;
12707;SDS011;6418;50.824;4.718;2023-04-25T06:31:07;27.50;;;8.83;;
12707;SDS011;6418;50.824;4.718;2023-04-25T06:33:34;22.70;;;8.23;;
12707;SDS011;6418;50.824;4.718;2023-04-25T06:36:01;25.90;;;8.43;;
12707;SDS011;6418;50.824;4.718;2023-04-25T06:38:28;23.03;;;8.63;;
12707;SDS011;6418;50.824;4.718;2023-04-25T06:40:55;22.17;;;8.80;;
12707;SDS011;6418;50.824;4.718;2023-04-25T06:43:22;25.90;;;8.60;;
12707;SDS011;6418;50.824;4.718;2023-04-25T06:45:49;22.47;;;8.67;;
12707;SDS011;6418;50.824;4.718;2023-04-25T06:48:17;24.23;;;8.20;;
12707;SDS011;6418;50.824;4.718;2023-04-25T06:50:44;25.77;;;8.73;;
12707;SDS011;6418;50.824;4.718;2023-04-25T06:53:11;22.57;;;9.30;;
12707;SDS011;6418;50.824;4.718;2023-04-25T06:55:38;23.73;;;9.10;;
12707;SDS011;6418;50.824;4.718;2023-04-25T06:58:05;24.73;;;8.80;;
12707;SDS011;6418;50.824;4.718;2023-04-25T07:00:32;23.00;;;8.73;;
12707;SDS011;6418;50.824;4.718;2023-04-25T07:02:59;23.93;;;8.67;;
12707;SDS011;6418;50.824;4.718;2023-04-25T07:05:28;20.20;;;8.20;;
12707;SDS011;6418;50.824;4.718;2023-04-25T07:07:55;20.13;;;8.30;;
12707;SDS011;6418;50.824;4.718;2023-04-25T07:10:22;20.87;;;8.03;;
12707;SDS011;6418;50.824;4.718;2023-04-25T07:12:50;22.77;;;7.90;;
12707;SDS011;6418;50.824;4.718;2023-04-25T07:15:17;21.13;;;8.00;;
12707;SDS011;6418;50.824;4.718;2023-04-25T07:17:44;22.73;;;8.03;;
12707;SDS011;6418;50.824;4.718;2023-04-25T07:20:11;21.53;;;8.27;;
12707;SDS011;6418;50.824;4.718;2023-04-25T07:22:39;21.07;;;7.97;;
12707;SDS011;6418;50.824;4.718;2023-04-25T07:25:06;21.73;;;7.60;;
12707;SDS011;6418;50.824;4.718;2023-04-25T07:27:34;22.17;;;7.40;;
12707;SDS011;6418;50.824;4.718;2023-04-25T07:30:01;18.77;;;7.70;;
12707;SDS011;6418;50.824;4.718;2023-04-25T07:32:29;20.00;;;7.00;;
12707;SDS011;6418;50.824;4.718;2023-04-25T07:34:56;25.33;;;7.27;;
12707;SDS011;6418;50.824;4.718;2023-04-25T07:37:23;26.87;;;7.40;;
12707;SDS011;6418;50.824;4.718;2023-04-25T07:39:52;17.67;;;7.43;;
12707;SDS011;6418;50.824;4.718;2023-04-25T07:42:19;18.50;;;7.10;;
12707;SDS011;6418;50.824;4.718;2023-04-25T07:44:46;22.70;;;7.13;;
12707;SDS011;6418;50.824;4.718;2023-04-25T07:47:13;19.47;;;6.37;;
12707;SDS011;6418;50.824;4.718;2023-04-25T07:49:40;18.83;;;6.60;;
12707;SDS011;6418;50.824;4.718;2023-04-25T07:52:07;22.53;;;7.30;;
12707;SDS011;6418;50.824;4.718;2023-04-25T07:54:34;21.07;;;7.27;;
12707;SDS011;6418;50.824;4.718;2023-04-25T07:57:03;23.23;;;7.70;;
12707;SDS011;6418;50.824;4.718;2023-04-25T07:59:31;17.10;;;6.83;;
12707;SDS011;6418;50.824;4.718;2023-04-25T08:01:58;17.60;;;7.20;;
12707;SDS011;6418;50.824;4.718;2023-04-25T08:04:26;19.60;;;6.53;;
12707;SDS011;6418;50.824;4.718;2023-04-25T08:06:53;24.13;;;7.67;;
12707;SDS011;6418;50.824;4.718;2023-04-25T08:09:21;18.53;;;7.50;;
12707;SDS011;6418;50.824;4.718;2023-04-25T08:11:48;18.37;;;6.70;;
12707;SDS011;6418;50.824;4.718;2023-04-25T08:14:16;19.03;;;6.83;;
12707;SDS011;6418;50.824;4.718;2023-04-25T08:16:44;19.80;;;7.00;;
12707;SDS011;6418;50.824;4.718;2023-04-25T08:19:10;23.83;;;7.20;;
12707;SDS011;6418;50.824;4.718;2023-04-25T08:21:37;20.00;;;7.30;;
12707;SDS011;6418;50.824;4.718;2023-04-25T08:24:05;18.70;;;7.10;;
12707;SDS011;6418;50.824;4.718;2023-04-25T08:26:32;20.60;;;7.17;;
12707;SDS011;6418;50.824;4.718;2023-04-25T08:28:59;19.23;;;6.83;;
12707;SDS011;6418;50.824;4.718;2023-04-25T08:31:28;20.87;;;7.40;;
12707;SDS011;6418;50.824;4.718;2023-04-25T08:33:55;17.87;;;7.50;;
12707;SDS011;6418;50.824;4.718;2023-04-25T08:36:22;21.53;;;7.50;;
12707;SDS011;6418;50.824;4.718;2023-04-25T08:38:49;28.57;;;8.17;;
12707;SDS011;6418;50.824;4.718;2023-04-25T08:41:16;20.80;;;7.80;;
12707;SDS011;6418;50.824;4.718;2023-04-25T08:43:45;28.63;;;7.43;;
12707;SDS011;6418;50.824;4.718;2023-04-25T08:46:15;25.63;;;8.57;;
12707;SDS011;6418;50.824;4.718;2023-04-25T08:48:45;23.93;;;7.73;;
12707;SDS011;6418;50.824;4.718;2023-04-25T08:51:15;20.63;;;7.83;;
12707;SDS011;6418;50.824;4.718;2023-04-25T08:53:47;20.57;;;7.70;;
12707;SDS011;6418;50.824;4.718;2023-04-25T08:56:17;21.50;;;7.77;;
12707;SDS011;6418;50.824;4.718;2023-04-25T08:58:47;22.50;;;8.00;;
12707;SDS011;6418;50.824;4.718;2023-04-25T09:01:15;26.07;;;8.07;;
12707;SDS011;6418;50.824;4.718;2023-04-25T09:03:43;23.07;;;7.70;;
12707;SDS011;6418;50.824;4.718;2023-04-25T09:06:13;21.13;;;8.23;;
12707;SDS011;6418;50.824;4.718;2023-04-25T09:08:41;21.67;;;7.37;;
12707;SDS011;6418;50.824;4.718;2023-04-25T09:11:08;15.93;;;6.60;;
12707;SDS011;6418;50.824;4.718;2023-04-25T09:13:35;17.23;;;6.37;;
12707;SDS011;6418;50.824;4.718;2023-04-25T09:16:02;20.87;;;7.23;;
12707;SDS011;6418;50.824;4.718;2023-04-25T09:18:30;19.17;;;6.10;;
12707;SDS011;6418;50.824;4.718;2023-04-25T09:21:04;19.47;;;6.80;;
12707;SDS011;6418;50.824;4.718;2023-04-25T09:23:39;20.73;;;6.50;;
12707;SDS011;6418;50.824;4.718;2023-04-25T09:26:07;21.70;;;6.13;;
12707;SDS011;6418;50.824;4.718;2023-04-25T09:28:35;22.13;;;6.47;;
12707;SDS011;6418;50.824;4.718;2023-04-25T09:31:03;15.83;;;6.17;;
12707;SDS011;6418;50.824;4.718;2023-04-25T09:33:30;18.93;;;6.37;;
12707;SDS011;6418;50.824;4.718;2023-04-25T09:36:01;16.37;;;5.90;;
12707;SDS011;6418;50.824;4.718;2023-04-25T09:38:30;15.93;;;5.70;;
12707;SDS011;6418;50.824;4.718;2023-04-25T09:40:59;18.30;;;6.20;;
12707;SDS011;6418;50.824;4.718;2023-04-25T09:43:27;23.00;;;5.67;;
12707;SDS011;6418;50.824;4.718;2023-04-25T09:45:54;17.73;;;5.70;;
12707;SDS011;6418;50.824;4.718;2023-04-25T09:48:24;18.33;;;5.60;;
12707;SDS011;6418;50.824;4.718;2023-04-25T09:51:05;18.60;;;5.93;;
12707;SDS011;6418;50.824;4.718;2023-04-25T09:53:34;17.10;;;5.20;;
12707;SDS011;6418;50.824;4.718;2023-04-25T09:56:04;14.67;;;5.63;;
12707;SDS011;6418;50.824;4.718;2023-04-25T09:58:32;15.97;;;5.33;;
12707;SDS011;6418;50.824;4.718;2023-04-25T10:01:01;11.67;;;4.80;;
12707;SDS011;6418;50.824;4.718;2023-04-25T10:03:29;12.57;;;5.07;;
12707;SDS011;6418;50.824;4.718;2023-04-25T10:05:58;15.33;;;5.13;;
12707;SDS011;6418;50.824;4.718;2023-04-25T10:08:28;14.53;;;4.90;;
12707;SDS011;6418;50.824;4.718;2023-04-25T10:10:59;15.43;;;5.40;;
12707;SDS011;6418;50.824;4.718;2023-04-25T10:13:29;15.63;;;5.67;;
12707;SDS011;6418;50.824;4.718;2023-04-25T10:15:57;14.13;;;5.17;;
12707;SDS011;6418;50.824;4.718;2023-04-25T10:18:25;16.13;;;5.20;;
12707;SDS011;6418;50.824;4.718;2023-04-25T10:20:53;17.33;;;5.17;;
12707;SDS011;6418;50.824;4.718;2023-04-25T10:23:21;14.13;;;4.77;;
12707;SDS011;6418;50.824;4.718;2023-04-25T10:25:49;10.77;;;4.37;;
12707;SDS011;6418;50.824;4.718;2023-04-25T10:28:17;12.37;;;4.70;;
12707;SDS011;6418;50.824;4.718;2023-04-25T10:30:59;15.33;;;4.73;;
12707;SDS011;6418;50.824;4.718;2023-04-25T10:33:30;11.60;;;4.37;;
12707;SDS011;6418;50.824;4.718;2023-04-25T10:36:08;12.33;;;4.10;;
12707;SDS011;6418;50.824;4.718;2023-04-25T10:38:36;11.93;;;4.20;;
12707;SDS011;6418;50.824;4.718;2023-04-25T10:41:03;9.53;;;4.10;;
12707;SDS011;6418;50.824;4.718;2023-04-25T10:43:34;10.63;;;4.20;;
12707;SDS011;6418;50.824;4.718;2023-04-25T10:46:18;12.90;;;4.07;;
12707;SDS011;6418;50.824;4.718;2023-04-25T10:48:48;11.17;;;3.77;;
12707;SDS011;6418;50.824;4.718;2023-04-25T10:51:17;12.33;;;3.90;;
12707;SDS011;6418;50.824;4.718;2023-04-25T10:53:45;9.23;;;3.70;;
12707;SDS011;6418;50.824;4.718;2023-04-25T10:56:16;8.80;;;3.73;;
12707;SDS011;6418;50.824;4.718;2023-04-25T10:58:44;11.87;;;3.90;;
12707;SDS011;6418;50.824;4.718;2023-04-25T11:01:12;9.93;;;4.00;;
12707;SDS011;6418;50.824;4.718;2023-04-25T11:03:41;7.83;;;3.30;;
12707;SDS011;6418;50.824;4.718;2023-04-25T11:06:12;7.57;;;3.63;;
12707;SDS011;6418;50.824;4.718;2023-04-25T11:08:49;10.80;;;3.90;;
12707;SDS011;6418;50.824;4.718;2023-04-25T11:11:17;9.10;;;3.77;;
12707;SDS011;6418;50.824;4.718;2023-04-25T11:13:47;10.27;;;3.77;;
12707;SDS011;6418;50.824;4.718;2023-04-25T11:16:15;10.63;;;3.87;;
12707;SDS011;6418;50.824;4.718;2023-04-25T11:18:44;12.57;;;4.00;;
12707;SDS011;6418;50.824;4.718;2023-04-25T11:21:11;8.00;;;3.77;;
12707;SDS011;6418;50.824;4.718;2023-04-25T11:23:39;10.37;;;3.80;;
12707;SDS011;6418;50.824;4.718;2023-04-25T11:26:07;11.07;;;4.00;;
12707;SDS011;6418;50.824;4.718;2023-04-25T11:28:34;11.93;;;4.00;;
12707;SDS011;6418;50.824;4.718;2023-04-25T11:31:02;9.97;;;4.07;;
12707;SDS011;6418;50.824;4.718;2023-04-25T11:33:30;12.67;;;4.00;;
12707;SDS011;6418;50.824;4.718;2023-04-25T11:35:59;11.60;;;4.10;;
12707;SDS011;6418;50.824;4.718;2023-04-25T11:38:26;10.90;;;4.50;;
12707;SDS011;6418;50.824;4.718;2023-04-25T11:40:53;11.23;;;4.20;;
12707;SDS011;6418;50.824;4.718;2023-04-25T11:43:21;12.47;;;4.40;;
12707;SDS011;6418;50.824;4.718;2023-04-25T11:45:48;13.77;;;4.70;;
12707;SDS011;6418;50.824;4.718;2023-04-25T11:48:17;11.20;;;4.83;;
12707;SDS011;6418;50.824;4.718;2023-04-25T11:50:45;12.37;;;4.70;;
12707;SDS011;6418;50.824;4.718;2023-04-25T11:53:13;13.60;;;4.63;;
12707;SDS011;6418;50.824;4.718;2023-04-25T11:55:43;11.27;;;4.77;;
12707;SDS011;6418;50.824;4.718;2023-04-25T11:58:10;12.33;;;4.77;;
12707;SDS011;6418;50.824;4.718;2023-04-25T12:00:38;14.73;;;4.77;;
12707;SDS011;6418;50.824;4.718;2023-04-25T12:03:08;12.33;;;4.33;;
12707;SDS011;6418;50.824;4.718;2023-04-25T12:05:35;13.17;;;4.50;;
12707;SDS011;6418;50.824;4.718;2023-04-25T12:08:12;12.07;;;4.30;;
12707;SDS011;6418;50.824;4.718;2023-04-25T12:10:41;12.33;;;4.47;;
12707;SDS011;6418;50.824;4.718;2023-04-25T12:13:19;15.13;;;4.43;;
12707;SDS011;6418;50.824;4.718;2023-04-25T12:15:47;14.27;;;4.87;;
12707;SDS011;6418;50.824;4.718;2023-04-25T12:18:15;13.80;;;4.67;;
12707;SDS011;6418;50.824;4.718;2023-04-25T12:20:44;13.03;;;5.40;;
12707;SDS011;6418;50.824;4.718;2023-04-25T12:23:11;11.90;;;5.10;;
12707;SDS011;6418;50.824;4.718;2023-04-25T12:25:40;12.60;;;5.10;;
12707;SDS011;6418;50.824;4.718;2023-04-25T12:28:13;14.63;;;5.40;;
12707;SDS011;6418;50.824;4.718;2023-04-25T12:30:53;12.50;;;4.90;;
12707;SDS011;6418;50.824;4.718;2023-04-25T12:33:24;15.17;;;5.27;;
12707;SDS011;6418;50.824;4.718;2023-04-25T12:35:52;13.40;;;5.00;;
12707;SDS011;6418;50.824;4.718;2023-04-25T12:38:24;10.37;;;4.50;;
12707;SDS011;6418;50.824;4.718;2023-04-25T12:40:52;14.90;;;4.90;;
12707;SDS011;6418;50.824;4.718;2023-04-25T12:43:21;10.80;;;4.70;;
12707;SDS011;6418;50.824;4.718;2023-04-25T12:45:49;10.63;;;4.10;;
12707;SDS011;6418;50.824;4.718;2023-04-25T12:48:19;8.07;;;3.97;;
12707;SDS011;6418;50.824;4.718;2023-04-25T12:50:46;10.37;;;3.83;;
12707;SDS011;6418;50.824;4.718;2023-04-25T12:53:14;9.90;;;4.17;;
12707;SDS011;6418;50.824;4.718;2023-04-25T12:55:43;12.53;;;4.80;;
12707;SDS011;6418;50.824;4.718;2023-04-25T12:58:11;11.93;;;3.90;;
12707;SDS011;6418;50.824;4.718;2023-04-25T13:00:38;8.67;;;3.80;;
12707;SDS011;6418;50.824;4.718;2023-04-25T13:03:05;10.93;;;3.87;;
12707;SDS011;6418;50.824;4.718;2023-04-25T13:05:33;7.60;;;3.70;;
12707;SDS011;6418;50.824;4.718;2023-04-25T13:08:00;7.63;;;3.60;;
12707;SDS011;6418;50.824;4.718;2023-04-25T13:10:27;9.33;;;3.70;;
12707;SDS011;6418;50.824;4.718;2023-04-25T13:12:55;8.97;;;3.27;;
12707;SDS011;6418;50.824;4.718;2023-04-25T13:15:23;8.70;;;3.60;;
12707;SDS011;6418;50.824;4.718;2023-04-25T13:17:49;10.00;;;3.40;;
12707;SDS011;6418;50.824;4.718;2023-04-25T13:20:16;5.63;;;3.40;;
12707;SDS011;6418;50.824;4.718;2023-04-25T13:22:47;6.40;;;3.60;;
12707;SDS011;6418;50.824;4.718;2023-04-25T13:25:14;8.00;;;3.20;;
12707;SDS011;6418;50.824;4.718;2023-04-25T13:27:41;8.87;;;3.60;;
12707;SDS011;6418;50.824;4.718;2023-04-25T13:30:10;6.50;;;3.23;;
12707;SDS011;6418;50.824;4.718;2023-04-25T13:32:38;11.93;;;4.07;;
12707;SDS011;6418;50.824;4.718;2023-04-25T13:35:06;10.17;;;3.70;;
12707;SDS011;6418;50.824;4.718;2023-04-25T13:37:35;8.90;;;3.70;;
12707;SDS011;6418;50.824;4.718;2023-04-25T13:40:02;11.17;;;4.10;;
12707;SDS011;6418;50.824;4.718;2023-04-25T13:42:34;12.83;;;3.83;;
12707;SDS011;6418;50.824;4.718;2023-04-25T13:45:02;11.07;;;3.80;;
12707;SDS011;6418;50.824;4.718;2023-04-25T13:47:31;9.67;;;3.70;;
12707;SDS011;6418;50.824;4.718;2023-04-25T13:49:58;8.47;;;3.83;;
12707;SDS011;6418;50.824;4.718;2023-04-25T13:52:27;12.37;;;4.00;;
12707;SDS011;6418;50.824;4.718;2023-04-25T13:54:54;10.07;;;4.23;;
12707;SDS011;6418;50.824;4.718;2023-04-25T13:57:21;8.13;;;3.60;;
12707;SDS011;6418;50.824;4.718;2023-04-25T13:59:48;8.83;;;3.80;;
12707;SDS011;6418;50.824;4.718;2023-04-25T14:02:16;9.60;;;3.47;;
12707;SDS011;6418;50.824;4.718;2023-04-25T14:04:45;8.47;;;3.70;;
12707;SDS011;6418;50.824;4.718;2023-04-25T14:07:12;10.17;;;3.87;;
12707;SDS011;6418;50.824;4.718;2023-04-25T14:09:41;8.40;;;3.70;;
12707;SDS011;6418;50.824;4.718;2023-04-25T14:12:08;9.57;;;3.50;;
12707;SDS011;6418;50.824;4.718;2023-04-25T14:14:35;7.93;;;3.27;;
12707;SDS011;6418;50.824;4.718;2023-04-25T14:17:02;6.97;;;3.67;;
12707;SDS011;6418;50.824;4.718;2023-04-25T14:19:30;9.47;;;3.63;;
12707;SDS011;6418;50.824;4.718;2023-04-25T14:21:58;7.17;;;3.23;;
12707;SDS011;6418;50.824;4.718;2023-04-25T14:24:25;10.97;;;3.50;;
12707;SDS011;6418;50.824;4.718;2023-04-25T14:26:52;8.27;;;3.50;;
12707;SDS011;6418;50.824;4.718;2023-04-25T14:29:19;7.07;;;3.70;;
12707;SDS011;6418;50.824;4.718;2023-04-25T14:31:46;10.43;;;4.30;;
12707;SDS011;6418;50.824;4.718;2023-04-25T14:34:13;8.77;;;3.73;;
12707;SDS011;6418;50.824;4.718;2023-04-25T14:36:40;9.63;;;3.77;;
12707;SDS011;6418;50.824;4.718;2023-04-25T14:39:08;7.57;;;3.67;;
12707;SDS011;6418;50.824;4.718;2023-04-25T14:41:37;13.83;;;3.77;;
12707;SDS011;6418;50.824;4.718;2023-04-25T14:44:04;11.00;;;3.60;;
12707;SDS011;6418;50.824;4.718;2023-04-25T14:46:31;10.33;;;3.63;;
12707;SDS011;6418;50.824;4.718;2023-04-25T14:48:59;10.93;;;3.67;;
12707;SDS011;6418;50.824;4.718;2023-04-25T14:51:27;9.87;;;3.73;;
12707;SDS011;6418;50.824;4.718;2023-04-25T14:53:54;8.57;;;3.67;;
12707;SDS011;6418;50.824;4.718;2023-04-25T14:56:23;7.50;;;3.10;;